Time;durP1;ratioP1;P1;durP2;ratioP2;P2;SDS_P1;SDS_P2;PMS_P1;PMS_P2;Temp;Humidity;BMP_temperature;BMP_pressure;BME280_temperature;BME280_humidity;BME280_pressure;Samples;Min_cycle;Max_cycle;Signal;HPM_P1;HPM_P2
2023/11/25 00:01:24;;;;;;;8.27;1.95;;;;;;;6.26;100.00;101424.84;5270284;28;20032;-74
2023/11/25 00:03:54;;;;;;;9.98;1.48;;;;;;;6.34;100.00;101422.44;5267883;28;20032;-74
2023/11/25 00:06:25;;;;;;;9.15;1.35;;;;;;;6.31;100.00;101423.50;5268425;28;20031;-74
2023/11/25 00:08:55;;;;;;;7.68;1.05;;;;;;;6.30;100.00;101421.81;5266954;28;20662;-74
2023/11/25 00:11:27;;;;;;;6.30;1.02;;;;;;;6.21;100.00;101419.91;5274210;28;20062;-74
2023/11/25 00:13:58;;;;;;;10.45;1.27;;;;;;;6.10;100.00;101428.75;5265041;28;20119;-74
2023/11/25 00:16:30;;;;;;;9.63;1.30;;;;;;;6.17;100.00;101426.44;5271493;28;20035;-74
2023/11/25 00:19:00;;;;;;;9.57;1.80;;;;;;;6.12;100.00;101433.94;5268994;28;20036;-74
2023/11/25 00:21:31;;;;;;;13.90;2.95;;;;;;;6.01;100.00;101428.63;5268412;28;20073;-74
2023/11/25 00:24:02;;;;;;;14.77;1.42;;;;;;;6.06;100.00;101440.63;5269657;28;20434;-74
2023/11/25 00:26:33;;;;;;;7.43;1.10;;;;;;;5.96;100.00;101443.16;5270902;27;20027;-74
2023/11/25 00:29:03;;;;;;;6.43;1.20;;;;;;;5.97;100.00;101447.56;5270528;28;20093;-74
2023/11/25 00:31:34;;;;;;;10.32;1.33;;;;;;;6.06;100.00;101445.09;5268334;28;20456;-74
2023/11/25 00:34:04;;;;;;;7.82;1.40;;;;;;;6.05;100.00;101446.09;5266376;28;20120;-74
2023/11/25 00:36:35;;;;;;;8.23;1.27;;;;;;;6.02;100.00;101443.66;5269057;28;20028;-74
2023/11/25 00:39:06;;;;;;;20.70;1.70;;;;;;;5.87;100.00;101440.34;5259387;28;20477;-74
2023/11/25 00:41:38;;;;;;;13.93;1.52;;;;;;;5.95;100.00;101449.47;5274173;28;20036;-74
2023/11/25 00:44:08;;;;;;;8.25;1.42;;;;;;;5.95;100.00;101456.63;5268249;28;20993;-74
2023/11/25 00:46:39;;;;;;;7.95;1.30;;;;;;;5.91;100.00;101452.47;5270808;28;20057;-74
2023/11/25 00:49:11;;;;;;;9.77;1.52;;;;;;;6.01;100.00;101449.94;5267529;28;20548;-74
2023/11/25 00:51:42;;;;;;;11.68;1.27;;;;;;;5.94;100.00;101442.44;5265197;28;20039;-74
2023/11/25 00:54:13;;;;;;;15.50;1.52;;;;;;;6.01;100.00;101444.63;5267070;28;20477;-74
2023/11/25 00:56:43;;;;;;;9.95;1.85;;;;;;;6.05;100.00;101446.91;5274452;28;20047;-74
2023/11/25 00:59:14;;;;;;;10.77;1.60;;;;;;;6.00;100.00;101440.28;5270147;28;20024;-74
2023/11/25 01:01:45;;;;;;;13.93;1.67;;;;;;;5.95;100.00;101446.81;5272144;28;20032;-74
2023/11/25 01:04:16;;;;;;;18.45;1.83;;;;;;;5.96;100.00;101444.97;5269535;28;20102;-74
2023/11/25 01:06:47;;;;;;;7.78;2.05;;;;;;;6.03;100.00;101434.72;5270412;28;20034;-74
2023/11/25 01:09:19;;;;;;;13.75;1.48;;;;;;;6.11;100.00;101437.59;5267909;28;20024;-74
2023/11/25 01:11:49;;;;;;;9.82;1.10;;;;;;;6.15;100.00;101447.88;5271757;28;20077;-74
2023/11/25 01:14:20;;;;;;;6.80;1.48;;;;;;;6.16;100.00;101451.38;5271500;28;20036;-74
2023/11/25 01:16:52;;;;;;;10.70;1.27;;;;;;;6.10;100.00;101447.41;5267056;28;20111;-74
2023/11/25 01:19:23;;;;;;;8.02;1.02;;;;;;;6.01;100.00;101447.28;5272675;28;20110;-74
2023/11/25 01:21:54;;;;;;;6.47;1.35;;;;;;;5.94;100.00;101449.59;5267665;28;20103;-74
2023/11/25 01:24:24;;;;;;;7.80;1.40;;;;;;;5.88;100.00;101453.56;5272667;28;20032;-74
2023/11/25 01:26:55;;;;;;;7.70;1.42;;;;;;;5.81;100.00;101457.66;5270165;28;20646;-74
2023/11/25 01:29:25;;;;;;;9.95;1.42;;;;;;;5.81;100.00;101463.00;5271031;28;20020;-74
2023/11/25 01:31:55;;;;;;;8.02;1.50;;;;;;;5.80;100.00;101455.13;5266643;28;20020;-74
2023/11/25 01:34:26;;;;;;;10.07;2.03;;;;;;;5.76;100.00;101451.84;5262683;28;20108;-74
2023/11/25 01:36:56;;;;;;;15.18;1.75;;;;;;;5.71;100.00;101451.38;5267630;28;20016;-74
2023/11/25 01:39:27;;;;;;;19.25;1.35;;;;;;;5.68;100.00;101452.47;5266118;28;20028;-74
2023/11/25 01:41:57;;;;;;;10.60;1.40;;;;;;;5.68;100.00;101451.63;5270170;28;20008;-74
2023/11/25 01:44:28;;;;;;;8.13;1.55;;;;;;;5.68;100.00;101446.28;5267531;28;20454;-74
2023/11/25 01:46:59;;;;;;;12.48;1.63;;;;;;;5.71;100.00;101456.69;5267357;28;20028;-74
2023/11/25 01:49:29;;;;;;;13.77;2.78;;;;;;;5.75;100.00;101455.50;5269766;28;20024;-74
2023/11/25 01:52:00;;;;;;;13.43;1.45;;;;;;;5.75;100.00;101452.81;5264521;28;20031;-74
2023/11/25 01:54:31;;;;;;;7.47;0.98;;;;;;;5.69;100.00;101453.31;5270131;28;20020;-74
2023/11/25 01:57:02;;;;;;;8.55;1.48;;;;;;;5.71;100.00;101459.34;5266996;28;20085;-74
2023/11/25 01:59:33;;;;;;;13.48;1.38;;;;;;;5.60;100.00;101454.88;5269393;28;20101;-74
2023/11/25 02:02:05;;;;;;;9.57;1.67;;;;;;;5.58;100.00;101462.13;5269127;28;20105;-74
2023/11/25 02:04:36;;;;;;;22.33;1.55;;;;;;;5.57;100.00;101459.56;5265852;28;20035;-74
2023/11/25 02:07:06;;;;;;;6.82;1.40;;;;;;;5.58;100.00;101455.97;5267291;28;20019;-74
2023/11/25 02:09:37;;;;;;;15.40;1.83;;;;;;;5.57;100.00;101454.25;5267829;28;20491;-74
2023/11/25 02:12:07;;;;;;;8.85;1.50;;;;;;;5.57;100.00;101456.91;5261662;28;20477;-74
2023/11/25 02:14:38;;;;;;;10.27;1.70;;;;;;;5.56;100.00;101458.72;5269996;28;20111;-74
2023/11/25 02:17:09;;;;;;;11.27;2.10;;;;;;;5.54;100.00;101454.50;5264134;28;20046;-74
2023/11/25 02:19:42;;;;;;;8.23;1.35;;;;;;;5.58;100.00;101455.97;5267835;28;20122;-74
2023/11/25 02:22:13;;;;;;;13.02;2.70;;;;;;;5.59;100.00;101461.16;5266192;28;20024;-74
2023/11/25 02:24:43;;;;;;;11.13;2.08;;;;;;;5.59;100.00;101465.66;5268937;28;20061;-74
2023/11/25 02:27:14;;;;;;;14.95;1.77;;;;;;;5.56;100.00;101464.06;5264454;28;21247;-74
2023/11/25 02:29:44;;;;;;;22.25;2.10;;;;;;;5.50;100.00;101467.19;5268005;28;20027;-74
2023/11/25 02:32:15;;;;;;;15.90;2.25;;;;;;;5.38;100.00;101469.00;5269377;28;20027;-73
2023/11/25 02:34:46;;;;;;;14.52;1.92;;;;;;;5.27;100.00;101468.97;5267476;28;20019;-73
2023/11/25 02:37:16;;;;;;;13.07;2.30;;;;;;;5.18;100.00;101475.00;5266974;28;20107;-73
2023/11/25 02:39:46;;;;;;;14.15;1.92;;;;;;;5.17;100.00;101481.25;5268576;28;20028;-73
2023/11/25 02:42:17;;;;;;;20.63;3.45;;;;;;;5.17;100.00;101474.16;5266412;28;20430;-73
2023/11/25 02:44:48;;;;;;;11.23;2.58;;;;;;;5.29;100.00;101467.03;5264220;28;20020;-73
2023/11/25 02:47:18;;;;;;;12.18;1.45;;;;;;;5.30;100.00;101466.06;5268664;28;20099;-73
2023/11/25 02:49:50;;;;;;;13.82;1.73;;;;;;;5.32;100.00;101477.44;5269006;28;20027;-73
2023/11/25 02:52:24;;;;;;;7.78;2.15;;;;;;;5.30;100.00;101479.38;5265368;28;20020;-73
2023/11/25 02:54:55;;;;;;;11.35;1.83;;;;;;;5.28;100.00;101475.97;5268413;28;20483;-73
2023/11/25 02:57:26;;;;;;;9.85;1.83;;;;;;;5.27;100.00;101487.59;5265598;28;20031;-73
2023/11/25 02:59:59;;;;;;;12.10;2.00;;;;;;;5.29;100.00;101476.81;5266582;28;20028;-74
2023/11/25 03:02:29;;;;;;;15.32;1.95;;;;;;;5.32;100.00;101472.13;5269192;28;20058;-73
2023/11/25 03:05:00;;;;;;;12.00;1.80;;;;;;;5.38;100.00;101476.13;5264525;28;20024;-73
2023/11/25 03:07:30;;;;;;;18.33;1.98;;;;;;;5.48;100.00;101471.81;5269458;28;20026;-73
2023/11/25 03:10:03;;;;;;;9.32;2.60;;;;;;;5.57;100.00;101472.88;5265853;28;20107;-73
2023/11/25 03:12:34;;;;;;;14.05;1.52;;;;;;;5.64;100.00;101479.44;5270897;28;20032;-73
2023/11/25 03:15:06;;;;;;;6.95;1.48;;;;;;;5.72;100.00;101474.34;5271843;28;20040;-74
2023/11/25 03:17:36;;;;;;;5.35;1.40;;;;;;;5.76;100.00;101475.81;5271170;28;20036;-74
2023/11/25 03:20:08;;;;;;;9.85;1.50;;;;;;;5.78;100.00;101473.06;5267322;28;20039;-73
2023/11/25 03:22:43;;;;;;;10.65;1.70;;;;;;;5.73;100.00;101478.72;5268532;28;20034;-74
2023/11/25 03:25:14;;;;;;;8.43;1.80;;;;;;;5.63;100.00;101464.44;5268447;28;20024;-74
2023/11/25 03:27:45;;;;;;;6.20;1.40;;;;;;;5.52;100.00;101459.94;5267516;28;20054;-74
2023/11/25 03:30:22;;;;;;;13.25;1.58;;;;;;;5.41;100.00;101460.75;5270375;28;20545;-73
2023/11/25 03:32:53;;;;;;;14.68;1.85;;;;;;;5.30;100.00;101468.72;5270882;28;20397;-73
2023/11/25 03:35:24;;;;;;;8.30;1.73;;;;;;;5.20;100.00;101467.72;5273253;28;20016;-73
2023/11/25 03:37:56;;;;;;;9.85;2.22;;;;;;;5.08;100.00;101466.84;5269280;28;20085;-73
2023/11/25 03:40:26;;;;;;;20.25;1.73;;;;;;;5.01;100.00;101473.56;5268580;28;20027;-73
2023/11/25 03:42:58;;;;;;;11.68;1.92;;;;;;;4.92;100.00;101471.63;5270865;28;20089;-73
2023/11/25 03:45:28;;;;;;;11.48;2.08;;;;;;;4.85;100.00;101467.72;5271845;28;20034;-73
2023/11/25 03:47:59;;;;;;;13.93;2.25;;;;;;;4.78;100.00;101459.34;5270971;28;20461;-73
2023/11/25 03:50:30;;;;;;;17.13;1.92;;;;;;;4.74;100.00;101454.38;5268401;28;20031;-73
2023/11/25 03:53:01;;;;;;;12.13;1.80;;;;;;;4.67;100.00;101456.66;5268149;28;20362;-73
2023/11/25 03:55:32;;;;;;;18.17;1.88;;;;;;;4.65;100.00;101459.41;5272633;28;20047;-73
2023/11/25 03:58:04;;;;;;;12.80;1.42;;;;;;;4.59;100.00;101449.22;5269541;28;20547;-73
2023/11/25 04:00:35;;;;;;;19.80;2.67;;;;;;;4.56;100.00;101452.09;5271036;28;20047;-74
2023/11/25 04:03:05;;;;;;;14.57;1.90;;;;;;;4.54;100.00;101458.50;5272049;28;20473;-73
2023/11/25 04:05:36;;;;;;;11.32;1.55;;;;;;;4.53;100.00;101457.66;5273326;28;20019;-73
2023/11/25 04:08:06;;;;;;;24.23;3.90;;;;;;;4.52;100.00;101453.31;5270875;28;20462;-73
2023/11/25 04:10:36;;;;;;;16.45;2.10;;;;;;;4.49;100.00;101452.69;5273853;28;20024;-73
2023/11/25 04:13:07;;;;;;;14.43;1.98;;;;;;;4.44;100.00;101453.00;5270206;28;20024;-73
2023/11/25 04:15:39;;;;;;;17.02;1.90;;;;;;;4.50;100.00;101457.88;5273892;28;20089;-73
2023/11/25 04:18:10;;;;;;;21.42;3.28;;;;;;;4.53;100.00;101456.81;5266670;28;20500;-73
2023/11/25 04:20:40;;;;;;;11.60;2.20;;;;;;;4.56;100.00;101457.41;5271343;28;20023;-73
2023/11/25 04:23:14;;;;;;;13.82;1.95;;;;;;;4.60;100.00;101463.38;5268972;28;20551;-73
2023/11/25 04:25:45;;;;;;;15.70;3.03;;;;;;;4.67;100.00;101456.66;5267518;28;20023;-73
2023/11/25 04:28:15;;;;;;;13.40;1.92;;;;;;;4.69;100.00;101460.03;5268742;28;20278;-73
2023/11/25 04:30:46;;;;;;;16.65;3.05;;;;;;;4.69;100.00;101462.69;5272064;28;20069;-73
2023/11/25 04:33:16;;;;;;;12.82;2.08;;;;;;;4.67;100.00;101457.50;5271672;28;20107;-73
2023/11/25 04:35:47;;;;;;;13.57;2.20;;;;;;;4.63;100.00;101453.38;5273270;28;20027;-73
2023/11/25 04:38:18;;;;;;;9.13;2.40;;;;;;;4.62;100.00;101453.50;5270223;28;20046;-73
2023/11/25 04:40:49;;;;;;;22.95;2.15;;;;;;;4.61;100.00;101465.06;5267697;28;20066;-73
2023/11/25 04:43:19;;;;;;;12.68;2.53;;;;;;;4.63;100.00;101468.47;5268702;28;20110;-73
2023/11/25 04:45:49;;;;;;;19.95;2.63;;;;;;;4.61;100.00;101455.28;5270604;28;20032;-73
2023/11/25 04:48:20;;;;;;;20.67;2.63;;;;;;;4.61;100.00;101452.63;5270459;28;20024;-73
2023/11/25 04:50:50;;;;;;;19.38;2.33;;;;;;;4.62;100.00;101457.00;5268414;28;20040;-73
2023/11/25 04:53:21;;;;;;;12.80;2.10;;;;;;;4.63;100.00;101457.84;5269382;28;20668;-73
2023/11/25 04:55:51;;;;;;;10.85;2.35;;;;;;;4.65;100.00;101458.56;5270639;28;20401;-73
2023/11/25 04:58:22;;;;;;;14.38;2.25;;;;;;;4.65;100.00;101454.09;5270728;28;20032;-73
2023/11/25 05:00:54;;;;;;;19.23;2.67;;;;;;;4.63;100.00;101452.53;5267486;28;20020;-73
2023/11/25 05:03:25;;;;;;;21.85;3.42;;;;;;;4.66;100.00;101447.81;5271153;28;20126;-73
2023/11/25 05:05:56;;;;;;;11.77;2.08;;;;;;;4.65;100.00;101440.81;5270429;28;20489;-73
2023/11/25 05:08:27;;;;;;;15.73;2.15;;;;;;;4.65;100.00;101442.59;5272035;28;20030;-73
2023/11/25 05:10:57;;;;;;;23.65;2.95;;;;;;;4.69;100.00;101438.78;5269882;28;20035;-73
2023/11/25 05:13:28;;;;;;;15.57;2.65;;;;;;;4.76;100.00;101442.66;5268861;28;20043;-73
2023/11/25 05:15:58;;;;;;;20.98;3.20;;;;;;;4.79;100.00;101447.75;5271542;28;20072;-73
2023/11/25 05:18:29;;;;;;;23.30;3.58;;;;;;;4.82;100.00;101463.50;5269161;28;20023;-73
2023/11/25 05:21:00;;;;;;;12.90;2.95;;;;;;;4.86;100.00;101454.28;5269352;28;20023;-73
2023/11/25 05:23:32;;;;;;;19.25;2.63;;;;;;;4.88;100.00;101452.41;5269402;28;20419;-73
2023/11/25 05:26:03;;;;;;;22.50;3.35;;;;;;;4.89;100.00;101450.59;5266934;28;20031;-73
2023/11/25 05:28:33;;;;;;;18.88;4.20;;;;;;;4.89;100.00;101455.91;5269361;28;20048;-73
2023/11/25 05:31:04;;;;;;;19.02;3.03;;;;;;;4.94;100.00;101459.91;5265791;28;20126;-73
2023/11/25 05:33:34;;;;;;;14.25;2.20;;;;;;;5.00;100.00;101455.94;5269725;28;20027;-73
2023/11/25 05:36:05;;;;;;;20.63;3.13;;;;;;;5.11;100.00;101458.63;5262386;28;20027;-73
2023/11/25 05:38:36;;;;;;;14.20;2.65;;;;;;;5.20;100.00;101457.09;5264727;28;20110;-73
2023/11/25 05:41:08;;;;;;;23.83;2.78;;;;;;;5.31;100.00;101470.41;5266163;28;20077;-73
2023/11/25 05:43:40;;;;;;;21.20;2.80;;;;;;;5.40;100.00;101472.38;5270496;28;20035;-73
2023/11/25 05:46:20;;;;;;;26.27;9.07;;;;;;;5.51;100.00;101484.00;5268196;28;20110;-73
2023/11/25 05:48:53;;;;;;;30.67;10.57;;;;;;;5.53;100.00;101501.56;5262952;28;20020;-74
2023/11/25 05:51:32;;;;;;;16.17;2.65;;;;;;;5.61;100.00;101509.78;5255866;28;20176;-75
2023/11/25 05:54:05;;;;;;;20.73;3.25;;;;;;;5.75;100.00;101502.56;5268293;28;20734;-75
2023/11/25 05:56:37;;;;;;;15.20;3.17;;;;;;;5.75;100.00;101499.91;5269518;28;20110;-74
2023/11/25 05:59:08;;;;;;;17.60;3.33;;;;;;;5.88;100.00;101501.50;5265516;28;20401;-75
2023/11/25 06:01:38;;;;;;;26.10;4.05;;;;;;;6.08;100.00;101504.44;5263316;28;20019;-74
2023/11/25 06:04:10;;;;;;;17.00;2.63;;;;;;;6.06;100.00;101498.38;5265387;28;20031;-75
2023/11/25 06:06:40;;;;;;;19.63;3.63;;;;;;;6.16;100.00;101494.00;5268812;28;20032;-75
2023/11/25 06:09:11;;;;;;;14.20;1.88;;;;;;;6.30;100.00;101491.09;5265433;28;20034;-75
2023/11/25 06:11:43;;;;;;;18.85;2.50;;;;;;;6.27;100.00;101496.66;5267632;28;20020;-74
2023/11/25 06:14:15;;;;;;;16.15;3.75;;;;;;;6.32;100.00;101467.84;5243506;28;20039;-74
2023/11/25 06:16:48;;;;;;;43.85;12.15;;;;;;;6.31;100.00;101452.81;5260453;28;20032;-74
2023/11/25 06:19:20;;;;;;;25.63;5.75;;;;;;;6.23;100.00;101445.47;5264694;28;20016;-74
2023/11/25 06:21:51;;;;;;;15.27;2.40;;;;;;;6.12;100.00;101440.13;5263142;28;20521;-74
2023/11/25 06:24:22;;;;;;;17.05;2.33;;;;;;;6.04;100.00;101439.06;5267081;28;20032;-74
2023/11/25 06:26:53;;;;;;;23.50;3.63;;;;;;;5.94;100.00;101429.13;5266050;28;20039;-74
2023/11/25 06:29:24;;;;;;;19.88;3.70;;;;;;;5.87;100.00;101427.03;5260926;28;20020;-74
2023/11/25 06:31:54;;;;;;;29.75;4.05;;;;;;;5.77;100.00;101434.91;5263177;28;20030;-74
2023/11/25 06:34:25;;;;;;;23.08;2.75;;;;;;;5.71;100.00;101430.91;5265730;28;20028;-74
2023/11/25 06:36:55;;;;;;;22.30;5.43;;;;;;;5.70;100.00;101449.69;5266536;28;20028;-74
2023/11/25 06:39:31;;;;;;;23.90;5.93;;;;;;;5.71;100.00;101441.56;5261648;28;20028;-74
2023/11/25 06:42:01;;;;;;;27.25;4.38;;;;;;;5.71;100.00;101438.06;5265475;28;20070;-74
2023/11/25 06:44:32;;;;;;;28.65;3.53;;;;;;;5.78;100.00;101439.28;5267303;28;20044;-74
2023/11/25 06:47:03;;;;;;;25.20;5.72;;;;;;;5.78;100.00;101438.44;5263707;28;20024;-74
2023/11/25 06:49:35;;;;;;;16.05;4.50;;;;;;;5.75;100.00;101439.50;5266191;28;20020;-74
2023/11/25 06:52:06;;;;;;;22.35;3.80;;;;;;;5.85;100.00;101436.97;5268403;28;20039;-74
2023/11/25 06:54:36;;;;;;;24.00;9.45;;;;;;;5.89;100.00;101438.44;5271582;28;20016;-74
2023/11/25 06:57:07;;;;;;;21.15;5.32;;;;;;;5.90;100.00;101440.13;5270420;28;20024;-74
2023/11/25 06:59:44;;;;;;;13.48;3.42;;;;;;;5.91;100.00;101453.34;5269502;28;20099;-74
2023/11/25 07:02:15;;;;;;;15.20;2.05;;;;;;;5.92;100.00;101444.41;5267920;28;20028;-74
2023/11/25 07:04:45;;;;;;;7.60;2.22;;;;;;;5.96;100.00;101458.31;5270279;28;20539;-74
2023/11/25 07:07:16;;;;;;;17.77;3.55;;;;;;;5.95;100.00;101445.97;5269358;28;20035;-74
2023/11/25 07:09:46;;;;;;;14.40;2.45;;;;;;;5.93;100.00;101435.44;5268867;28;20208;-74
2023/11/25 07:12:17;;;;;;;17.42;4.95;;;;;;;5.92;100.00;101433.75;5268161;28;20093;-74
2023/11/25 07:14:47;;;;;;;16.40;3.70;;;;;;;5.91;100.00;101434.69;5269061;28;20080;-74
2023/11/25 07:17:18;;;;;;;19.77;4.07;;;;;;;5.97;100.00;101442.22;5268391;28;20062;-74
2023/11/25 07:19:49;;;;;;;21.83;6.10;;;;;;;6.00;100.00;101438.44;5271233;28;20627;-74
2023/11/25 07:22:19;;;;;;;14.60;3.03;;;;;;;6.06;100.00;101447.75;5269187;28;20020;-74
2023/11/25 07:24:50;;;;;;;25.95;14.23;;;;;;;6.13;100.00;101449.00;5270762;28;20032;-74
2023/11/25 07:27:23;;;;;;;23.92;12.88;;;;;;;6.17;100.00;101463.72;5270027;28;20099;-74
2023/11/25 07:29:54;;;;;;;25.48;8.50;;;;;;;6.21;100.00;101467.84;5268198;28;20044;-74
2023/11/25 07:32:25;;;;;;;18.38;3.65;;;;;;;6.23;100.00;101449.94;5266138;28;20051;-74
2023/11/25 07:34:56;;;;;;;14.02;3.65;;;;;;;6.27;100.00;101443.38;5267373;28;20027;-74
2023/11/25 07:37:27;;;;;;;9.27;2.15;;;;;;;6.23;100.00;101436.63;5263149;28;20030;-74
2023/11/25 07:39:57;;;;;;;9.35;3.30;;;;;;;6.17;100.00;101445.09;5262563;28;20024;-74
2023/11/25 07:42:28;;;;;;;19.70;4.10;;;;;;;6.13;100.00;101452.50;5263775;28;20020;-74
2023/11/25 07:44:59;;;;;;;8.90;2.05;;;;;;;6.14;100.00;101445.34;5263776;28;20020;-74
2023/11/25 07:47:30;;;;;;;14.43;2.60;;;;;;;6.20;100.00;101450.19;5263274;28;20020;-74
2023/11/25 07:50:00;;;;;;;14.95;2.58;;;;;;;6.31;100.00;101454.63;5264315;28;20146;-74
2023/11/25 07:52:31;;;;;;;12.93;3.08;;;;;;;6.35;100.00;101461.41;5264471;28;20048;-74
2023/11/25 07:55:01;;;;;;;11.05;2.45;;;;;;;6.37;100.00;101464.78;5262853;28;20518;-74
2023/11/25 07:57:33;;;;;;;12.77;2.72;;;;;;;6.40;100.00;101469.88;5261728;28;20099;-75
2023/11/25 08:00:06;;;;;;;9.75;2.90;;;;;;;6.46;100.00;101477.38;5260849;28;20020;-75
2023/11/25 08:02:37;;;;;;;16.83;2.92;;;;;;;6.42;100.00;101468.78;5262076;28;20023;-74
2023/11/25 08:05:11;;;;;;;26.20;5.93;;;;;;;6.46;100.00;101466.72;5264124;28;20481;-74
2023/11/25 08:07:41;;;;;;;22.77;3.90;;;;;;;6.45;100.00;101459.69;5259867;28;20024;-74
2023/11/25 08:10:12;;;;;;;14.73;4.22;;;;;;;6.46;100.00;101454.25;5263324;28;20081;-74
2023/11/25 08:12:45;;;;;;;29.30;13.07;;;;;;;6.50;100.00;101449.50;5265804;28;20032;-74
2023/11/25 08:15:17;;;;;;;18.83;4.82;;;;;;;6.58;100.00;101446.25;5263584;28;20114;-74
2023/11/25 08:17:48;;;;;;;26.63;10.77;;;;;;;6.65;100.00;101447.41;5268053;28;20020;-74
2023/11/25 08:20:18;;;;;;;20.13;5.65;;;;;;;6.74;100.00;101438.66;5267333;28;20129;-74
2023/11/25 08:22:49;;;;;;;19.05;6.60;;;;;;;6.85;100.00;101443.94;5267948;28;20035;-74
2023/11/25 08:25:19;;;;;;;17.42;5.60;;;;;;;6.97;100.00;101444.72;5265575;28;20690;-75
2023/11/25 08:27:51;;;;;;;19.13;4.00;;;;;;;6.96;100.00;101437.72;5267284;28;20034;-74
2023/11/25 08:30:21;;;;;;;14.32;5.50;;;;;;;6.95;100.00;101428.88;5263840;28;20485;-74
2023/11/25 08:32:52;;;;;;;15.60;3.92;;;;;;;7.08;100.00;101427.81;5269675;28;20114;-74
2023/11/25 08:35:22;;;;;;;16.83;5.63;;;;;;;7.11;100.00;101431.09;5265696;28;20162;-74
2023/11/25 08:37:53;;;;;;;13.13;3.15;;;;;;;7.15;100.00;101424.50;5264954;28;20077;-75
2023/11/25 08:40:23;;;;;;;13.88;4.80;;;;;;;7.27;100.00;101423.47;5263345;28;20045;-74
2023/11/25 08:42:56;;;;;;;17.23;3.20;;;;;;;7.33;100.00;101422.13;5267435;28;20102;-74
2023/11/25 08:45:27;;;;;;;13.50;2.85;;;;;;;7.39;100.00;101418.91;5267742;28;20032;-74
2023/11/25 08:47:58;;;;;;;7.15;2.22;;;;;;;7.59;100.00;101419.03;5265641;28;20410;-74
2023/11/25 08:50:29;;;;;;;15.77;2.90;;;;;;;7.69;100.00;101425.25;5264465;28;20020;-75
2023/11/25 08:53:02;;;;;;;12.65;1.85;;;;;;;7.84;100.00;101431.94;5267327;28;20027;-74
2023/11/25 08:55:32;;;;;;;6.32;2.50;;;;;;;8.01;100.00;101443.81;5267586;28;20107;-75
2023/11/25 08:58:07;;;;;;;11.10;3.08;;;;;;;7.96;100.00;101438.84;5267289;28;20068;-73
2023/11/25 09:00:37;;;;;;;12.90;3.55;;;;;;;7.94;100.00;101438.16;5267277;28;20046;-73
2023/11/25 09:03:09;;;;;;;13.52;2.20;;;;;;;7.94;100.00;101437.31;5265402;28;20543;-73
2023/11/25 09:05:40;;;;;;;9.75;2.70;;;;;;;7.90;100.00;101431.38;5263433;28;20111;-73
2023/11/25 09:08:11;;;;;;;12.93;3.55;;;;;;;7.84;100.00;101431.09;5264769;28;20027;-73
2023/11/25 09:10:42;;;;;;;15.20;5.13;;;;;;;7.83;100.00;101422.22;5263136;28;20023;-74
2023/11/25 09:13:12;;;;;;;8.57;2.13;;;;;;;7.88;100.00;101424.47;5263664;28;20031;-74
2023/11/25 09:15:44;;;;;;;14.07;2.78;;;;;;;7.94;100.00;101434.66;5265361;28;20767;-73
2023/11/25 09:18:15;;;;;;;8.50;2.63;;;;;;;8.12;100.00;101430.31;5266852;28;20054;-72
2023/11/25 09:20:45;;;;;;;7.82;3.95;;;;;;;8.11;100.00;101436.66;5263875;28;20012;-73
2023/11/25 09:23:16;;;;;;;10.55;3.53;;;;;;;8.20;100.00;101438.53;5265709;28;20038;-74
2023/11/25 09:25:47;;;;;;;10.88;2.97;;;;;;;8.16;100.00;101444.28;5269071;28;20500;-74
2023/11/25 09:28:17;;;;;;;9.88;2.50;;;;;;;8.19;100.00;101436.00;5264771;28;20024;-74
2023/11/25 09:30:48;;;;;;;13.23;5.50;;;;;;;8.12;100.00;101441.00;5261068;28;20020;-74
2023/11/25 09:33:18;;;;;;;5.38;1.83;;;;;;;8.05;100.00;101440.72;5263430;28;20039;-74
2023/11/25 09:35:49;;;;;;;10.02;2.17;;;;;;;7.96;100.00;101443.34;5264528;28;20028;-74
2023/11/25 09:38:19;;;;;;;6.68;1.90;;;;;;;7.86;100.00;101434.47;5263452;28;20077;-74
2023/11/25 09:40:52;;;;;;;11.00;2.20;;;;;;;8.15;100.00;101438.09;5261704;28;20054;-74
2023/11/25 09:43:22;;;;;;;5.97;1.40;;;;;;;8.37;100.00;101441.53;5263987;28;20032;-75
2023/11/25 09:45:53;;;;;;;15.32;4.65;;;;;;;8.53;100.00;101434.69;5265769;28;20020;-74
2023/11/25 09:48:24;;;;;;;9.20;1.65;;;;;;;8.74;100.00;101447.09;5269743;28;20031;-75
2023/11/25 09:50:54;;;;;;;9.40;1.75;;;;;;;8.92;100.00;101447.25;5262598;28;20050;-75
2023/11/25 09:53:28;;;;;;;9.82;3.13;;;;;;;8.94;100.00;101438.09;5265305;28;20058;-74
2023/11/25 09:56:05;;;;;;;13.55;1.42;;;;;;;8.98;100.00;101444.84;5262851;28;20024;-74
2023/11/25 09:58:36;;;;;;;17.73;3.10;;;;;;;9.06;100.00;101441.47;5267413;28;20032;-75
2023/11/25 10:01:10;;;;;;;12.00;2.10;;;;;;;9.16;100.00;101436.09;5264915;28;20028;-75
2023/11/25 10:03:45;;;;;;;9.93;1.75;;;;;;;9.15;100.00;101440.63;5263773;28;20031;-74
2023/11/25 10:06:15;;;;;;;7.97;3.15;;;;;;;9.18;100.00;101442.16;5264307;28;20384;-75
2023/11/25 10:08:46;;;;;;;8.63;2.50;;;;;;;9.10;100.00;101447.38;5266622;28;20012;-75
2023/11/25 10:11:18;;;;;;;11.52;1.55;;;;;;;9.07;100.00;101448.50;5266556;28;20043;-75
2023/11/25 10:13:49;;;;;;;11.15;1.60;;;;;;;8.98;100.00;101447.50;5264836;28;20020;-75
2023/11/25 10:16:29;;;;;;;11.13;1.60;;;;;;;9.18;100.00;101440.31;5265941;28;20038;-75
2023/11/25 10:19:00;;;;;;;9.63;3.35;;;;;;;9.24;100.00;101434.41;5264539;28;20054;-75
2023/11/25 10:21:35;;;;;;;9.52;2.10;;;;;;;9.37;100.00;101428.72;5263961;28;20140;-75
2023/11/25 10:24:06;;;;;;;12.35;3.30;;;;;;;9.51;100.00;101422.94;5265226;28;20020;-75
2023/11/25 10:26:37;;;;;;;15.13;1.85;;;;;;;9.78;100.00;101422.13;5268383;28;20019;-75
2023/11/25 10:29:09;;;;;;;13.48;3.63;;;;;;;9.95;100.00;101411.63;5268244;28;20023;-74
2023/11/25 10:31:41;;;;;;;14.60;2.33;;;;;;;9.98;100.00;101412.16;5268365;28;20068;-75
2023/11/25 10:34:13;;;;;;;9.32;2.60;;;;;;;10.10;100.00;101412.81;5270697;28;20038;-75
2023/11/25 10:36:46;;;;;;;12.95;3.03;;;;;;;10.24;100.00;101411.47;5269612;28;20260;-75
2023/11/25 10:39:18;;;;;;;10.80;2.90;;;;;;;10.38;100.00;101401.09;5267865;28;20032;-75
2023/11/25 10:41:50;;;;;;;7.28;1.83;;;;;;;10.47;100.00;101409.22;5268922;28;20232;-74
2023/11/25 10:44:21;;;;;;;9.85;2.67;;;;;;;10.81;100.00;101412.94;5265261;28;20036;-75
2023/11/25 10:46:55;;;;;;;16.35;2.25;;;;;;;11.08;100.00;101403.06;5268765;28;20056;-75
2023/11/25 10:49:31;;;;;;;6.57;1.90;;;;;;;10.88;100.00;101407.78;5268300;28;20386;-73
2023/11/25 10:52:04;;;;;;;9.95;1.65;;;;;;;10.67;100.00;101412.63;5264301;28;20077;-74
2023/11/25 10:54:35;;;;;;;10.25;3.00;;;;;;;10.44;100.00;101418.44;5268314;28;20024;-74
2023/11/25 10:57:08;;;;;;;8.77;1.60;;;;;;;10.38;100.00;101408.28;5268708;28;20046;-74
2023/11/25 10:59:40;;;;;;;11.48;1.52;;;;;;;10.31;100.00;101413.44;5268751;28;20131;-74
2023/11/25 11:02:23;;;;;;;7.55;1.70;;;;;;;10.19;100.00;101419.09;5267572;28;20209;-74
2023/11/25 11:04:58;;;;;;;11.38;1.55;;;;;;;10.19;100.00;101419.09;5267034;28;20051;-74
2023/11/25 11:07:31;;;;;;;13.45;1.98;;;;;;;10.19;100.00;101414.63;5262748;28;20032;-75
2023/11/25 11:10:05;;;;;;;7.35;1.95;;;;;;;10.31;100.00;101407.22;5262681;28;20579;-74
2023/11/25 11:12:45;;;;;;;8.80;1.67;;;;;;;10.32;100.00;101407.06;5264516;28;20028;-74
2023/11/25 11:15:18;;;;;;;7.32;1.85;;;;;;;10.37;100.00;101401.25;5262950;28;20028;-74
2023/11/25 11:18:14;;;;;;;15.25;2.03;;;;;;;10.38;100.00;101392.19;5263304;28;20028;-74
2023/11/25 11:20:47;;;;;;;;;;;;;;;10.41;100.00;101391.91;5265059;28;20065;-74
2023/11/25 11:23:20;;;;;;;9.50;2.22;;;;;;;10.40;100.00;101386.72;5269116;28;19955;-74
2023/11/25 11:26:01;;;;;;;17.42;4.45;;;;;;;10.38;100.00;101382.31;5267317;28;20119;-74
2023/11/25 11:28:38;;;;;;;9.65;2.03;;;;;;;10.34;100.00;101383.63;5269192;28;20069;-74
2023/11/25 11:31:30;;;;;;;16.20;3.10;;;;;;;10.29;100.00;101377.88;5264714;28;20078;-74
2023/11/25 11:34:01;;;;;;;13.57;2.38;;;;;;;10.28;100.00;101373.50;5263308;28;20031;-74
2023/11/25 11:36:32;;;;;;;12.80;2.20;;;;;;;10.18;100.00;101382.56;5258627;28;20031;-74
2023/11/25 11:39:03;;;;;;;13.75;1.77;;;;;;;10.19;100.00;101381.56;5261394;28;20683;-74